Time;durP1;ratioP1;P1;durP2;ratioP2;P2;SDS_P1;SDS_P2;PMS_P1;PMS_P2;Temp;Humidity;BMP_temperature;BMP_pressure;BME280_temperature;BME280_humidity;BME280_pressure;Samples;Min_cycle;Max_cycle;Signal;HPM_P1;HPM_P2
2023/03/16 00:02:17;;;;;;;20.55;10.95;;;;;;;-2.41;100.00;97639.03;5080943;28;20668;-60
2023/03/16 00:04:46;;;;;;;16.92;10.75;;;;;;;-2.36;100.00;97640.19;5081982;28;20534;-59
2023/03/16 00:07:21;;;;;;;20.05;12.23;;;;;;;-2.55;100.00;97630.69;5073193;28;20036;-58
2023/03/16 00:09:48;;;;;;;17.17;10.95;;;;;;;-2.65;100.00;97630.03;5075405;28;20117;-60
2023/03/16 00:12:17;;;;;;;19.08;11.35;;;;;;;-2.64;100.00;97631.69;5074251;28;20127;-60
2023/03/16 00:14:45;;;;;;;18.55;11.05;;;;;;;-2.69;100.00;97634.00;5077988;28;20059;-60
2023/03/16 00:17:17;;;;;;;20.45;12.02;;;;;;;-2.71;100.00;97633.31;5074647;28;20112;-58
2023/03/16 00:20:06;;;;;;;20.25;12.98;;;;;;;-2.71;100.00;97635.94;5076885;28;20040;-60
2023/03/16 00:22:33;;;;;;;23.77;13.32;;;;;;;-2.70;100.00;97634.97;5074125;28;20036;-59
2023/03/16 00:25:00;;;;;;;20.63;11.07;;;;;;;-2.71;100.00;97633.31;5073186;28;20044;-58
2023/03/16 00:27:28;;;;;;;24.83;13.27;;;;;;;-2.70;100.00;97627.03;5074323;28;20119;-59
2023/03/16 00:29:55;;;;;;;20.10;11.48;;;;;;;-2.61;100.00;97632.16;5071739;28;20064;-58
2023/03/16 00:32:27;;;;;;;25.73;14.43;;;;;;;-2.71;100.00;97636.78;5074940;28;20044;-58
2023/03/16 00:34:55;;;;;;;26.73;13.30;;;;;;;-2.82;100.00;97637.91;5076070;28;20057;-58
2023/03/16 00:37:23;;;;;;;19.88;12.35;;;;;;;-2.90;100.00;97646.66;5076544;28;20047;-59
2023/03/16 00:39:50;;;;;;;21.98;12.48;;;;;;;-2.88;100.00;97639.38;5073689;28;20127;-60
2023/03/16 00:42:18;;;;;;;18.77;11.77;;;;;;;-2.97;100.00;97640.34;5073764;28;20128;-57
2023/03/16 00:44:45;;;;;;;18.70;11.68;;;;;;;-3.06;100.00;97636.00;5073955;28;20040;-60
2023/03/16 00:47:13;;;;;;;17.60;12.27;;;;;;;-2.93;100.00;97635.53;5078652;28;20046;-60
2023/03/16 00:49:41;;;;;;;18.02;11.63;;;;;;;-2.78;100.00;97633.13;5075828;28;20048;-58
2023/03/16 00:52:13;;;;;;;17.65;10.52;;;;;;;-2.90;100.00;97633.41;5072842;28;20115;-58
2023/03/16 00:54:42;;;;;;;18.63;10.60;;;;;;;-2.91;100.00;97620.31;5071962;28;20523;-59
2023/03/16 00:57:13;;;;;;;16.20;10.32;;;;;;;-3.02;100.00;97630.19;5081472;28;20036;-58
2023/03/16 00:59:40;;;;;;;16.13;10.73;;;;;;;-2.85;100.00;97632.13;5084496;28;20109;-60
2023/03/16 01:02:08;;;;;;;21.40;10.68;;;;;;;-2.81;100.00;97628.13;5068985;28;20508;-56
2023/03/16 01:04:35;;;;;;;17.98;10.38;;;;;;;-3.01;100.00;97623.94;5076133;28;20028;-59
2023/03/16 01:07:03;;;;;;;16.95;10.05;;;;;;;-3.10;100.00;97611.63;5082217;28;20040;-60
2023/03/16 01:09:35;;;;;;;19.65;11.93;;;;;;;-3.21;100.00;97614.56;5069751;28;20615;-59
2023/03/16 01:12:07;;;;;;;20.90;10.77;;;;;;;-3.09;100.00;97615.94;5079031;28;20104;-58
2023/03/16 01:14:34;;;;;;;17.27;11.18;;;;;;;-3.21;100.00;97620.66;5072326;28;20066;-59
2023/03/16 01:17:05;;;;;;;18.20;10.85;;;;;;;-3.18;100.00;97624.81;5075633;28;20040;-58
2023/03/16 01:19:32;;;;;;;18.33;11.55;;;;;;;-3.22;100.00;97615.53;5056224;28;20044;-59
2023/03/16 01:21:59;;;;;;;18.60;11.02;;;;;;;-3.37;100.00;97618.78;5073270;28;20040;-59
2023/03/16 01:24:26;;;;;;;19.00;11.07;;;;;;;-3.41;100.00;97604.19;5070794;28;20025;-58
2023/03/16 01:26:53;;;;;;;21.33;11.57;;;;;;;-3.35;100.00;97605.38;5080870;28;20047;-60
2023/03/16 01:29:20;;;;;;;20.05;11.20;;;;;;;-3.53;100.00;97612.38;5076246;28;20048;-58
2023/03/16 01:31:48;;;;;;;19.50;11.68;;;;;;;-3.60;100.00;97607.88;5066667;28;20603;-59
2023/03/16 01:34:17;;;;;;;18.80;10.98;;;;;;;-3.55;100.00;97610.88;5069192;28;20056;-59
2023/03/16 01:36:47;;;;;;;22.17;12.18;;;;;;;-3.54;100.00;97604.63;5076643;28;20048;-57
2023/03/16 01:39:15;;;;;;;20.90;11.73;;;;;;;-3.48;100.00;97606.63;5075643;28;20036;-58
2023/03/16 01:41:45;;;;;;;20.10;11.98;;;;;;;-3.36;100.00;97611.66;5082155;28;20085;-60
2023/03/16 01:44:18;;;;;;;22.65;12.43;;;;;;;-3.41;100.00;97606.84;5068466;28;20044;-57
2023/03/16 01:46:45;;;;;;;18.33;10.25;;;;;;;-3.37;100.00;97597.59;5081448;28;19966;-60
2023/03/16 01:49:19;;;;;;;18.38;10.50;;;;;;;-3.23;100.00;97597.97;5072149;28;20040;-59
2023/03/16 01:51:52;;;;;;;19.58;11.25;;;;;;;-3.11;100.00;97599.38;5074078;28;20130;-60
2023/03/16 01:54:26;;;;;;;19.13;10.98;;;;;;;-3.17;100.00;97600.81;5071835;28;20048;-59
2023/03/16 01:57:05;;;;;;;16.95;10.85;;;;;;;-3.25;100.00;97594.69;5074180;28;20487;-60
2023/03/16 02:00:08;;;;;;;17.17;10.68;;;;;;;-2.99;100.00;97584.00;5071967;28;20144;-59
2023/03/16 02:02:50;;;;;;;18.60;10.57;;;;;;;-2.91;100.00;97575.28;5080506;28;20458;-57
2023/03/16 02:05:53;;;;;;;16.67;9.95;;;;;;;-2.81;100.00;97578.59;5070630;28;20032;-59
2023/03/16 02:08:23;;;;;;;17.95;10.45;;;;;;;-2.95;100.00;97577.41;5070941;28;20556;-59
2023/03/16 02:10:53;;;;;;;15.77;9.27;;;;;;;-2.89;100.00;97576.78;5075622;28;20044;-59
2023/03/16 02:13:23;;;;;;;16.93;10.67;;;;;;;-2.91;100.00;97567.31;5082285;28;20051;-60
2023/03/16 02:15:52;;;;;;;18.60;9.85;;;;;;;-2.78;100.00;97573.00;5071778;28;20066;-58
2023/03/16 02:18:21;;;;;;;17.33;10.80;;;;;;;-2.66;100.00;97578.81;5073555;28;20041;-59
2023/03/16 02:20:57;;;;;;;14.40;8.88;;;;;;;-2.83;100.00;97575.31;5072089;28;20036;-59
2023/03/16 02:23:24;;;;;;;17.63;9.43;;;;;;;-2.92;100.00;97585.03;5082484;28;20051;-60
2023/03/16 02:26:12;;;;;;;14.27;9.23;;;;;;;-3.13;100.00;97583.63;5080879;28;20033;-60
2023/03/16 02:28:56;;;;;;;18.73;10.73;;;;;;;-2.98;100.00;97583.03;5081775;28;20074;-59
2023/03/16 02:31:22;;;;;;;15.13;10.27;;;;;;;-2.80;100.00;97584.75;5071869;28;20806;-59
2023/03/16 02:33:51;;;;;;;16.27;9.52;;;;;;;-2.78;100.00;97580.94;5077574;28;20422;-59
2023/03/16 02:36:19;;;;;;;17.38;10.23;;;;;;;-2.68;100.00;97566.72;5075115;28;20531;-59
2023/03/16 02:38:46;;;;;;;22.65;11.10;;;;;;;-2.50;100.00;97574.53;5076010;28;20138;-59
2023/03/16 02:41:20;;;;;;;18.85;10.57;;;;;;;-2.71;100.00;97565.22;5076779;28;20466;-58
2023/03/16 02:44:14;;;;;;;15.07;10.38;;;;;;;-2.77;100.00;97561.41;5069249;28;20040;-58
2023/03/16 02:46:45;;;;;;;16.65;11.00;;;;;;;-2.97;100.00;97550.25;5072834;28;20055;-58
2023/03/16 02:49:19;;;;;;;23.83;12.98;;;;;;;-2.88;100.00;97549.28;5079767;28;20064;-59
2023/03/16 02:51:46;;;;;;;23.17;13.65;;;;;;;-2.82;100.00;97545.16;5077647;28;20078;-58
2023/03/16 02:54:13;;;;;;;20.35;11.93;;;;;;;-2.81;100.00;97544.16;5079087;28;21062;-59
2023/03/16 02:56:40;;;;;;;20.63;12.90;;;;;;;-2.85;100.00;97553.41;5081936;28;20097;-58
2023/03/16 02:59:09;;;;;;;23.27;11.93;;;;;;;-2.80;100.00;97553.75;5078831;28;20040;-59
2023/03/16 03:01:35;;;;;;;20.58;12.38;;;;;;;-2.81;100.00;97554.75;5075287;28;20537;-59
2023/03/16 03:04:04;;;;;;;19.45;12.25;;;;;;;-2.69;100.00;97557.13;5078698;28;20048;-59
2023/03/16 03:06:31;;;;;;;24.70;13.13;;;;;;;-2.79;100.00;97554.59;5069113;28;20542;-59
2023/03/16 03:08:58;;;;;;;22.60;12.80;;;;;;;-2.96;100.00;97554.53;5077492;28;20056;-58
2023/03/16 03:11:25;;;;;;;22.60;14.05;;;;;;;-2.80;100.00;97548.47;5068412;28;20331;-60
2023/03/16 03:13:52;;;;;;;28.48;14.10;;;;;;;-2.68;100.00;97561.41;5077957;28;20440;-58
2023/03/16 03:16:22;;;;;;;21.63;12.57;;;;;;;-2.79;100.00;97557.25;5073928;28;20056;-58
2023/03/16 03:18:51;;;;;;;25.92;13.63;;;;;;;-2.80;100.00;97550.28;5075808;28;20407;-60
2023/03/16 03:21:18;;;;;;;23.73;13.57;;;;;;;-2.73;100.00;97545.19;5078179;28;20106;-58
2023/03/16 03:23:45;;;;;;;23.02;12.23;;;;;;;-2.75;100.00;97535.56;5082953;28;20052;-59
2023/03/16 03:26:15;;;;;;;27.35;15.93;;;;;;;-2.73;100.00;97537.22;5078425;28;20779;-57
2023/03/16 03:28:43;;;;;;;23.35;13.30;;;;;;;-2.75;100.00;97530.28;5092193;27;20106;-59
2023/03/16 03:31:13;;;;;;;22.13;13.52;;;;;;;-2.72;100.00;97538.88;5078838;28;20038;-60
2023/03/16 03:33:40;;;;;;;25.73;15.10;;;;;;;-2.76;100.00;97528.59;5074318;28;20052;-59
2023/03/16 03:36:07;;;;;;;25.90;14.18;;;;;;;-2.72;100.00;97523.81;5076195;28;20047;-60
2023/03/16 03:38:36;;;;;;;28.17;16.33;;;;;;;-2.68;100.00;97530.44;5081621;28;20044;-59
2023/03/16 03:41:08;;;;;;;27.67;15.13;;;;;;;-2.62;100.00;97536.88;5086628;28;20121;-58
2023/03/16 03:43:37;;;;;;;26.13;14.50;;;;;;;-2.65;100.00;97530.09;5076157;28;20056;-58
2023/03/16 03:46:05;;;;;;;30.02;15.63;;;;;;;-2.64;100.00;97525.63;5076778;28;20054;-59
2023/03/16 03:48:33;;;;;;;25.77;15.30;;;;;;;-2.63;100.00;97524.63;5080911;28;20163;-59
2023/03/16 03:51:00;;;;;;;29.27;15.82;;;;;;;-2.64;100.00;97523.81;5070192;28;20055;-59
2023/03/16 03:53:45;;;;;;;24.23;13.52;;;;;;;-2.72;100.00;97523.81;5079142;28;20112;-59
2023/03/16 03:56:34;;;;;;;27.02;14.02;;;;;;;-2.62;100.00;97521.81;5072255;28;20040;-59
2023/03/16 03:59:01;;;;;;;24.63;13.15;;;;;;;-2.69;100.00;97520.00;5082032;28;20052;-59
2023/03/16 04:01:48;;;;;;;21.65;12.35;;;;;;;-2.86;100.00;97517.31;5069794;28;20052;-60
2023/03/16 04:04:15;;;;;;;24.35;11.88;;;;;;;-2.66;100.00;97530.28;5079941;28;20043;-59
2023/03/16 04:06:41;;;;;;;21.85;13.35;;;;;;;-2.59;100.00;97533.09;5074605;28;20036;-59
2023/03/16 04:09:08;;;;;;;28.42;14.32;;;;;;;-2.63;100.00;97519.34;5079639;28;20496;-58
2023/03/16 04:11:35;;;;;;;19.42;12.35;;;;;;;-2.92;100.00;97518.78;5075187;28;20044;-57
2023/03/16 04:14:02;;;;;;;26.52;13.77;;;;;;;-2.45;100.00;97524.50;5067758;28;20040;-58
2023/03/16 04:16:29;;;;;;;19.90;11.90;;;;;;;-2.64;100.00;97515.03;5081615;28;20031;-57
2023/03/16 04:18:57;;;;;;;21.45;11.60;;;;;;;-2.87;100.00;97516.47;5070371;28;20044;-59
2023/03/16 04:21:24;;;;;;;23.20;11.50;;;;;;;-3.30;100.00;97508.59;5072331;28;20123;-55
2023/03/16 04:23:53;;;;;;;18.98;11.30;;;;;;;-3.28;100.00;97514.53;5080014;28;20057;-57
2023/03/16 04:26:27;;;;;;;19.63;12.05;;;;;;;-3.25;100.00;97508.09;5074890;28;20032;-60
2023/03/16 04:28:54;;;;;;;18.50;10.90;;;;;;;-3.17;100.00;97518.72;5069756;28;20048;-58
2023/03/16 04:31:21;;;;;;;18.42;11.10;;;;;;;-2.98;100.00;97518.59;5068055;28;20045;-58
2023/03/16 04:33:48;;;;;;;25.00;13.43;;;;;;;-3.24;100.00;97512.41;5074978;28;20093;-59
2023/03/16 04:36:15;;;;;;;23.00;14.45;;;;;;;-3.22;100.00;97512.22;5074679;28;20048;-59
2023/03/16 04:38:42;;;;;;;19.75;11.95;;;;;;;-3.28;100.00;97513.72;5070995;28;20037;-60
2023/03/16 04:41:10;;;;;;;22.55;12.25;;;;;;;-3.29;100.00;97512.88;5076190;28;20075;-59
2023/03/16 04:43:43;;;;;;;20.38;12.35;;;;;;;-3.40;100.00;97510.50;5074548;28;20569;-60
2023/03/16 04:46:19;;;;;;;20.88;12.45;;;;;;;-3.53;100.00;97510.97;5075355;28;20040;-60
2023/03/16 04:48:45;;;;;;;20.00;11.02;;;;;;;-3.54;100.00;97506.66;5078668;28;20044;-59
2023/03/16 04:51:12;;;;;;;18.77;11.57;;;;;;;-3.61;100.00;97509.09;5068387;28;20036;-60
2023/03/16 04:53:45;;;;;;;20.17;11.02;;;;;;;-3.74;100.00;97508.69;5085502;28;20043;-60
2023/03/16 04:56:20;;;;;;;19.83;12.18;;;;;;;-3.75;100.00;97504.41;5076341;28;20526;-60
2023/03/16 04:58:55;;;;;;;24.10;13.68;;;;;;;-3.71;100.00;97503.09;5075656;28;20040;-59
2023/03/16 05:01:23;;;;;;;23.63;10.93;;;;;;;-3.70;100.00;97502.94;5072911;28;20119;-59
2023/03/16 05:03:54;;;;;;;20.13;11.55;;;;;;;-3.68;100.00;97497.50;5071767;28;20071;-57
2023/03/16 05:06:22;;;;;;;23.48;12.45;;;;;;;-3.75;100.00;97501.75;5072754;28;20040;-58
2023/03/16 05:08:49;;;;;;;20.00;11.63;;;;;;;-3.87;100.00;97502.00;5076746;28;20130;-59
2023/03/16 05:11:15;;;;;;;16.77;10.52;;;;;;;-3.92;100.00;97499.00;5074759;28;20813;-57
2023/03/16 05:13:51;;;;;;;19.00;11.48;;;;;;;-3.82;100.00;97504.19;5072625;28;20040;-60
2023/03/16 05:16:18;;;;;;;20.10;10.32;;;;;;;-3.93;100.00;97497.38;5075467;28;20051;-59
2023/03/16 05:18:45;;;;;;;19.55;12.77;;;;;;;-3.86;100.00;97505.50;5071694;28;20122;-60
2023/03/16 05:21:12;;;;;;;23.13;11.50;;;;;;;-3.91;100.00;97508.59;5075619;28;20032;-59
2023/03/16 05:24:01;;;;;;;22.70;12.52;;;;;;;-3.96;100.00;97506.44;5076049;28;20162;-58
2023/03/16 05:26:27;;;;;;;17.50;10.45;;;;;;;-3.94;100.00;97507.09;5076475;28;20210;-59
2023/03/16 05:28:54;;;;;;;21.02;10.90;;;;;;;-3.84;100.00;97507.00;5075214;28;20122;-60
2023/03/16 05:31:25;;;;;;;23.30;11.50;;;;;;;-3.85;100.00;97505.34;5070265;28;20055;-59
2023/03/16 05:33:56;;;;;;;21.90;11.05;;;;;;;-3.81;100.00;97497.91;5076258;28;20047;-60
2023/03/16 05:36:23;;;;;;;21.55;11.52;;;;;;;-3.74;100.00;97496.31;5075605;28;20070;-58
2023/03/16 05:38:53;;;;;;;21.40;11.93;;;;;;;-3.85;100.00;97496.56;5072630;28;20040;-59
2023/03/16 05:41:28;;;;;;;20.30;11.18;;;;;;;-3.97;100.00;97498.66;5071290;28;20862;-60
2023/03/16 05:44:29;;;;;;;18.25;11.20;;;;;;;-3.82;100.00;97496.25;5056339;28;20059;-61
2023/03/16 05:47:12;;;;;;;25.77;11.85;;;;;;;-3.71;100.00;97493.34;5066967;28;20526;-61
2023/03/16 05:49:43;;;;;;;23.15;11.10;;;;;;;-3.85;100.00;97496.56;5072329;28;20159;-58
2023/03/16 05:52:19;;;;;;;19.73;11.65;;;;;;;-3.84;100.00;97485.03;5071692;28;20056;-59
2023/03/16 05:54:45;;;;;;;23.27;12.98;;;;;;;-3.63;100.00;97494.38;5070805;28;20048;-61
2023/03/16 05:57:12;;;;;;;22.60;12.80;;;;;;;-3.61;100.00;97484.47;5077178;28;20131;-60
2023/03/16 05:59:42;;;;;;;22.27;12.75;;;;;;;-3.49;100.00;97487.66;5078934;28;20079;-61
2023/03/16 06:02:10;;;;;;;20.05;12.27;;;;;;;-3.57;100.00;97478.69;5069966;28;20101;-58
2023/03/16 06:04:37;;;;;;;23.00;12.93;;;;;;;-3.75;100.00;97475.28;5072599;28;20094;-59
2023/03/16 06:07:03;;;;;;;28.23;15.35;;;;;;;-3.73;100.00;97479.44;5075858;28;20067;-61
2023/03/16 06:09:30;;;;;;;29.85;16.80;;;;;;;-3.71;100.00;97481.94;5074773;28;20040;-61
2023/03/16 06:11:57;;;;;;;25.10;13.60;;;;;;;-3.63;100.00;97479.31;5071612;28;20048;-58
2023/03/16 06:14:24;;;;;;;28.70;16.50;;;;;;;-3.55;100.00;97475.88;5077964;28;20052;-61
2023/03/16 06:16:53;;;;;;;30.20;16.42;;;;;;;-3.69;100.00;97472.84;5080918;28;20044;-60
2023/03/16 06:19:20;;;;;;;38.03;22.58;;;;;;;-3.68;100.00;97478.97;5078011;28;20097;-59
2023/03/16 06:21:51;;;;;;;23.67;13.50;;;;;;;-3.56;100.00;97487.47;5074767;28;20052;-61
2023/03/16 06:24:18;;;;;;;26.73;12.27;;;;;;;-3.68;100.00;97489.56;5082669;28;20056;-61
2023/03/16 06:26:44;;;;;;;26.90;16.52;;;;;;;-3.49;100.00;97490.28;5075019;28;20047;-59
2023/03/16 06:29:12;;;;;;;33.28;17.50;;;;;;;-3.40;100.00;97499.94;5075781;28;20044;-61
2023/03/16 06:31:39;;;;;;;25.73;14.55;;;;;;;-3.42;100.00;97491.31;5072802;28;20040;-61
2023/03/16 06:34:06;;;;;;;23.05;13.40;;;;;;;-3.41;100.00;97499.13;5080859;28;20044;-60
2023/03/16 06:36:33;;;;;;;24.70;13.18;;;;;;;-3.13;100.00;97498.84;5070132;28;20040;-60
2023/03/16 06:39:03;;;;;;;33.22;14.95;;;;;;;-2.71;100.00;97498.94;5074719;28;20131;-61
2023/03/16 06:41:41;;;;;;;27.83;15.77;;;;;;;-2.89;100.00;97491.13;5073852;28;20282;-61
2023/03/16 06:44:10;;;;;;;26.08;13.85;;;;;;;-2.94;100.00;97488.16;5078176;28;20110;-61
2023/03/16 06:46:42;;;;;;;26.25;14.27;;;;;;;-2.63;100.00;97490.16;5077162;28;20044;-59
2023/03/16 06:49:09;;;;;;;24.83;14.55;;;;;;;-2.63;100.00;97492.81;5078550;28;20549;-61
2023/03/16 06:51:36;;;;;;;24.55;14.60;;;;;;;-2.55;100.00;97492.81;5075908;28;20035;-61
2023/03/16 06:54:03;;;;;;;23.80;14.40;;;;;;;-2.45;100.00;97492.66;5075830;28;20042;-61
2023/03/16 06:56:31;;;;;;;28.02;15.35;;;;;;;-2.26;100.00;97493.31;5068788;28;20765;-59
2023/03/16 06:58:58;;;;;;;25.20;13.80;;;;;;;-2.17;100.00;97492.34;5081392;28;20043;-61
2023/03/16 07:01:25;;;;;;;25.92;14.00;;;;;;;-2.06;100.00;97493.81;5081578;28;20135;-60
2023/03/16 07:03:53;;;;;;;24.90;14.80;;;;;;;-1.75;100.00;97494.91;5082974;28;20063;-56
2023/03/16 07:06:25;;;;;;;25.00;14.70;;;;;;;-1.68;100.00;97493.22;5073670;28;20064;-59
2023/03/16 07:08:52;;;;;;;24.13;15.05;;;;;;;-1.37;100.00;97492.44;5068444;28;20044;-60
2023/03/16 07:11:20;;;;;;;28.58;15.50;;;;;;;-1.34;100.00;97491.28;5070190;28;20076;-58
2023/03/16 07:13:47;;;;;;;27.23;16.00;;;;;;;-1.25;100.00;97495.53;5075329;28;20032;-61
2023/03/16 07:16:14;;;;;;;25.77;15.18;;;;;;;-1.09;100.00;97491.16;5070621;28;20051;-59
2023/03/16 07:18:43;;;;;;;24.05;15.10;;;;;;;-1.02;100.00;97494.78;5077833;28;20142;-61
2023/03/16 07:21:13;;;;;;;24.17;15.90;;;;;;;-0.92;100.00;97489.25;5072380;28;20055;-61
2023/03/16 07:23:39;;;;;;;25.48;13.70;;;;;;;-0.81;100.00;97491.50;5053762;28;20060;-61
2023/03/16 07:26:07;;;;;;;23.00;13.23;;;;;;;-0.70;100.00;97489.44;5076652;28;20045;-60
2023/03/16 07:28:39;;;;;;;20.55;13.25;;;;;;;-0.61;100.00;97498.19;5073370;28;20681;-59
2023/03/16 07:31:08;;;;;;;18.23;11.80;;;;;;;-0.57;100.00;97492.34;5084266;28;20040;-61
2023/03/16 07:33:37;;;;;;;17.48;11.52;;;;;;;-0.47;100.00;97494.78;5081660;28;20040;-60
2023/03/16 07:36:09;;;;;;;19.83;11.15;;;;;;;-0.41;100.00;97499.38;5083622;28;20027;-60
2023/03/16 07:38:41;;;;;;;18.42;10.90;;;;;;;-0.27;100.00;97503.09;5071664;28;20450;-60
2023/03/16 07:41:08;;;;;;;18.00;10.63;;;;;;;-0.16;100.00;97501.84;5081020;28;20039;-57
2023/03/16 07:43:36;;;;;;;21.13;9.93;;;;;;;0.01;100.00;97496.38;5077044;28;20600;-59
2023/03/16 07:46:03;;;;;;;18.35;11.32;;;;;;;0.10;100.00;97494.44;5077529;28;20109;-60
2023/03/16 07:48:31;;;;;;;17.75;9.82;;;;;;;0.20;100.00;97499.50;5075539;28;20055;-60
2023/03/16 07:51:01;;;;;;;15.35;9.18;;;;;;;0.26;100.00;97493.47;5079441;28;20056;-59
2023/03/16 07:53:29;;;;;;;18.88;9.00;;;;;;;0.47;100.00;97489.22;5076094;28;20043;-60
2023/03/16 07:56:12;;;;;;;17.75;9.38;;;;;;;0.50;100.00;97488.84;5074521;28;20599;-60
2023/03/16 07:58:42;;;;;;;14.18;8.48;;;;;;;0.65;100.00;97491.50;5066495;28;20686;-51
2023/03/16 08:01:10;;;;;;;14.52;8.10;;;;;;;0.78;100.00;97496.19;5067211;28;20685;-52
2023/03/16 08:03:37;;;;;;;12.95;7.68;;;;;;;0.89;100.00;97493.03;5068753;28;20051;-51
2023/03/16 08:06:05;;;;;;;13.15;8.23;;;;;;;1.02;100.00;97492.38;5064818;28;20592;-52
2023/03/16 08:08:32;;;;;;;13.43;8.18;;;;;;;1.10;100.00;97499.44;5066827;28;20638;-55
2023/03/16 08:10:59;;;;;;;11.73;8.00;;;;;;;1.15;100.00;97490.88;5071035;28;20058;-50
2023/03/16 08:13:37;;;;;;;14.80;8.70;;;;;;;1.30;100.00;97498.84;5072520;28;20036;-51
2023/03/16 08:16:09;;;;;;;13.38;7.43;;;;;;;1.35;100.00;97501.75;5064473;28;20059;-53
2023/03/16 08:18:38;;;;;;;11.82;7.45;;;;;;;1.58;100.00;97497.25;5070256;28;20681;-50
2023/03/16 08:21:05;;;;;;;12.20;7.28;;;;;;;1.71;100.00;97493.88;5065245;28;20235;-53
2023/03/16 08:23:32;;;;;;;13.82;7.55;;;;;;;1.76;100.00;97484.28;5072871;28;20650;-53
2023/03/16 08:26:00;;;;;;;12.45;7.22;;;;;;;1.87;100.00;97482.91;5073507;28;20067;-54
2023/03/16 08:28:26;;;;;;;;;;;;;;;1.90;100.00;97479.88;5069488;28;19924;-54
2023/03/16 08:30:57;;;;;;;;;;;;;;;2.23;100.00;97469.59;5077187;28;20444;-53
2023/03/16 08:33:44;;;;;;;12.63;7.10;;;;;;;2.46;100.00;97470.16;5076352;28;19994;-53
2023/03/16 08:36:14;;;;;;;;;;;;;;;2.49;100.00;97468.94;5066864;28;20045;-51
2023/03/16 08:38:43;;;;;;;;;;;;;;;2.53;100.00;97464.84;5071204;28;20039;-53
2023/03/16 08:41:29;;;;;;;;;;;;;;;2.63;99.78;97459.16;5073809;28;19928;-53
2023/03/16 08:43:58;;;;;;;;;;;;;;;2.77;98.47;97459.22;5073763;28;19958;-52
2023/03/16 08:46:25;;;;;;;;;;;;;;;2.88;98.82;97455.13;5077235;28;20415;-52
2023/03/16 08:48:56;;;;;;;;;;;;;;;3.09;98.74;97446.97;5071660;28;20575;-51
2023/03/16 08:51:24;;;;;;;;;;;;;;;3.00;93.34;97458.88;5077871;28;20296;-51
2023/03/16 08:53:50;;;;;;;;;;;;;;;3.06;96.76;97451.91;5070301;28;20564;-52
2023/03/16 08:56:17;;;;;;;;;;;;;;;3.45;93.46;97455.69;5069111;28;19927;-59
2023/03/16 08:58:44;;;;;;;;;;;;;;;3.40;93.12;97463.50;5065836;28;20022;-60
2023/03/16 09:01:16;;;;;;;;;;;;;;;3.32;92.38;97455.66;5078562;28;20403;-60
2023/03/16 09:03:45;;;;;;;8.57;5.45;;;;;;;3.29;93.53;97461.41;5076398;28;20399;-59
2023/03/16 09:06:13;;;;;;;;;;;;;;;3.33;94.31;97462.66;5083485;28;20121;-61
2023/03/16 09:08:40;;;;;;;;;;;;;;;3.37;90.71;97454.03;5070116;28;19950;-59
2023/03/16 09:11:08;;;;;;;;;;;;;;;3.25;92.26;97445.75;5080802;28;19931;-59
2023/03/16 09:13:37;;;;;;;;;;;;;;;3.41;92.29;97448.25;5070044;28;19931;-58
2023/03/16 09:16:04;;;;;;;;;;;;;;;3.50;92.84;97439.84;5074059;28;19938;-58
2023/03/16 09:18:31;;;;;;;;;;;;;;;3.56;90.52;97440.03;5065185;28;19925;-58
2023/03/16 09:20:59;;;;;;;;;;;;;;;3.68;92.77;97442.94;5079461;28;19927;-62
2023/03/16 09:23:26;;;;;;;;;;;;;;;3.84;91.57;97458.56;5075631;28;20318;-62
2023/03/16 09:25:58;;;;;;;10.07;5.97;;;;;;;4.02;91.00;97455.28;5071399;28;19924;-60
2023/03/16 09:28:26;;;;;;;8.55;5.32;;;;;;;4.18;90.55;97455.06;5067238;28;20067;-59
2023/03/16 09:30:54;;;;;;;12.55;7.35;;;;;;;4.15;87.69;97441.06;5072258;28;20044;-60
2023/03/16 09:33:23;;;;;;;9.55;5.93;;;;;;;4.32;88.90;97447.81;5082312;28;20062;-61
2023/03/16 09:35:50;;;;;;;8.18;4.75;;;;;;;4.43;87.65;97437.25;5075717;28;20054;-60
2023/03/16 09:38:18;;;;;;;8.77;5.95;;;;;;;4.39;84.80;97430.69;5072840;28;20546;-60
2023/03/16 09:40:49;;;;;;;8.15;5.07;;;;;;;4.49;83.98;97421.38;5070934;28;20048;-60
2023/03/16 09:43:43;;;;;;;8.23;4.57;;;;;;;4.59;85.66;97431.66;5081579;28;20416;-62
2023/03/16 09:46:33;;;;;;;7.55;4.30;;;;;;;4.67;84.06;97416.16;5075152;28;20075;-62
2023/03/16 09:49:02;;;;;;;7.50;4.85;;;;;;;4.78;82.04;97422.72;5075594;28;20076;-60
2023/03/16 09:51:43;;;;;;;8.07;4.05;;;;;;;4.94;82.56;97421.38;5075318;28;20036;-60
2023/03/16 09:54:49;;;;;;;6.82;3.42;;;;;;;5.17;80.67;97413.84;5070144;28;20057;-62
2023/03/16 09:57:29;;;;;;;6.78;3.70;;;;;;;5.26;77.08;97420.59;5061902;28;20056;-60
2023/03/16 10:00:06;;;;;;;10.43;4.38;;;;;;;5.40;76.64;97407.91;5070605;28;20079;-60
2023/03/16 10:02:44;;;;;;;26.27;12.05;;;;;;;5.41;73.39;97406.88;5074761;28;20051;-61
2023/03/16 10:05:12;;;;;;;6.25;3.10;;;;;;;5.66;75.25;97418.66;5074342;28;20120;-60
2023/03/16 10:08:07;;;;;;;6.72;3.08;;;;;;;5.85;75.05;97431.13;5076613;28;20032;-55
2023/03/16 10:11:10;;;;;;;18.15;7.85;;;;;;;5.80;74.62;97428.28;5076067;28;20101;-57
2023/03/16 10:13:46;;;;;;;11.02;6.35;;;;;;;5.81;72.67;97412.94;5073640;28;20049;-59
2023/03/16 10:16:20;;;;;;;8.82;4.93;;;;;;;5.75;73.95;97411.97;5069277;28;20109;-57
2023/03/16 10:19:00;;;;;;;8.25;4.80;;;;;;;5.68;73.14;97419.28;5073805;28;20101;-58
2023/03/16 10:21:30;;;;;;;9.02;4.43;;;;;;;5.84;71.98;97420.59;5075176;28;20048;-56
2023/03/16 10:24:01;;;;;;;7.13;3.38;;;;;;;5.85;74.14;97423.06;5066448;28;20041;-58
2023/03/16 10:26:43;;;;;;;7.22;4.30;;;;;;;5.95;73.45;97411.81;5067026;28;20048;-56
2023/03/16 10:29:13;;;;;;;10.05;3.05;;;;;;;5.99;72.03;97404.94;5072947;28;20052;-59
2023/03/16 10:31:41;;;;;;;6.78;3.13;;;;;;;6.20;71.82;97402.09;5071683;28;20055;-53
2023/03/16 10:34:09;;;;;;;6.40;2.97;;;;;;;6.16;69.43;97384.75;5071004;28;20037;-56
2023/03/16 10:36:40;;;;;;;6.15;2.72;;;;;;;6.32;68.75;97377.97;5073501;28;20043;-56
2023/03/16 10:39:10;;;;;;;7.22;2.50;;;;;;;6.34;67.95;97382.06;5069629;28;20041;-55
2023/03/16 10:41:40;;;;;;;4.75;2.67;;;;;;;6.48;69.53;97373.84;5074836;28;20040;-57
2023/03/16 10:44:20;;;;;;;6.72;2.42;;;;;;;6.57;70.18;97383.28;5069568;28;20032;-58
2023/03/16 10:46:52;;;;;;;5.85;3.25;;;;;;;6.66;67.72;97380.28;5070287;28;20046;-57
2023/03/16 10:49:24;;;;;;;5.65;2.55;;;;;;;6.73;67.10;97381.00;5068369;28;20036;-58
2023/03/16 10:51:53;;;;;;;6.22;2.30;;;;;;;6.83;65.39;97380.44;5067077;28;20663;-59
2023/03/16 10:54:29;;;;;;;7.93;2.47;;;;;;;6.93;66.29;97380.72;5072434;28;20044;-60
2023/03/16 10:56:57;;;;;;;4.00;2.10;;;;;;;7.05;65.30;97378.09;5077922;28;20725;-60
2023/03/16 10:59:24;;;;;;;6.15;2.33;;;;;;;7.10;64.40;97375.53;5079210;28;20037;-60
2023/03/16 11:01:51;;;;;;;5.57;2.30;;;;;;;7.05;63.69;97371.88;5075682;28;20032;-60
2023/03/16 11:04:18;;;;;;;4.53;2.30;;;;;;;7.22;63.75;97369.38;5065525;28;20056;-62
2023/03/16 11:07:08;;;;;;;3.67;2.03;;;;;;;7.32;64.14;97371.47;5059303;28;20044;-58
2023/03/16 11:09:36;;;;;;;4.13;2.05;;;;;;;7.53;62.99;97375.50;5065611;28;20120;-59
2023/03/16 11:12:23;;;;;;;3.92;2.05;;;;;;;7.65;63.14;97372.81;5076782;28;20415;-61
2023/03/16 11:14:50;;;;;;;4.20;2.15;;;;;;;7.77;62.15;97359.34;5067865;28;20040;-61
2023/03/16 11:17:33;;;;;;;6.05;2.00;;;;;;;7.50;58.87;97366.00;5065928;28;20062;-59
2023/03/16 11:20:16;;;;;;;3.05;1.70;;;;;;;7.60;56.95;97360.06;5068999;28;20464;-61
2023/03/16 11:22:46;;;;;;;4.43;1.85;;;;;;;7.62;58.56;97362.50;5065772;28;20048;-60
2023/03/16 11:25:16;;;;;;;4.50;2.00;;;;;;;7.81;57.23;97357.81;5069356;28;20037;-60
2023/03/16 11:27:51;;;;;;;4.47;1.77;;;;;;;7.98;58.60;97357.13;5073266;28;20065;-59
2023/03/16 11:30:28;;;;;;;4.20;2.03;;;;;;;8.06;57.37;97362.16;5065542;28;20704;-57
2023/03/16 11:32:54;;;;;;;4.03;1.60;;;;;;;7.90;56.62;97351.03;5065945;28;20047;-59
2023/03/16 11:35:33;;;;;;;3.42;1.63;;;;;;;8.06;51.84;97348.66;5068697;28;20558;-56
2023/03/16 11:38:18;;;;;;;3.65;1.50;;;;;;;8.18;55.15;97345.94;5074259;28;20069;-59
2023/03/16 11:40:59;;;;;;;3.20;1.60;;;;;;;8.51;56.30;97340.97;5071820;28;20082;-57
2023/03/16 11:43:51;;;;;;;4.30;1.60;;;;;;;8.77;55.90;97352.31;5070224;28;20476;-59